Time;durP1;ratioP1;P1;durP2;ratioP2;P2;SDS_P1;SDS_P2;PMS_P1;PMS_P2;Temp;Humidity;BMP_temperature;BMP_pressure;BME280_temperature;BME280_humidity;BME280_pressure;Samples;Min_cycle;Max_cycle;Signal;HPM_P1;HPM_P2
2022/01/06 00:00:14;;;;;;;17.05;4.32;;;25.90;99.90;;;;;;5131497;27;20388;-80
2022/01/06 00:02:41;;;;;;;20.17;4.70;;;26.20;99.90;;;;;;5131528;27;20376;-78
2022/01/06 00:05:09;;;;;;;19.73;4.43;;;26.10;99.90;;;;;;5131458;27;20396;-77
2022/01/06 00:07:36;;;;;;;20.30;4.35;;;26.20;99.90;;;;;;5131479;27;20396;-86
2022/01/06 00:10:06;;;;;;;22.67;4.82;;;26.40;99.90;;;;;;5131245;27;20756;-84
2022/01/06 00:12:42;;;;;;;21.15;4.63;;;26.20;99.90;;;;;;5131628;27;20440;-77
2022/01/06 00:15:34;;;;;;;21.35;4.72;;;26.40;99.90;;;;;;5131068;27;20943;-87
2022/01/06 00:23:29;;;;;;;22.27;4.60;;;26.70;99.90;;;;;;5131769;27;20382;-84
2022/01/06 00:25:57;;;;;;;20.45;4.97;;;26.70;99.90;;;;;;5131228;27;20373;-83
2022/01/06 00:28:25;;;;;;;24.05;4.88;;;27.30;99.90;;;;;;5130945;27;20393;-80
2022/01/06 00:30:53;;;;;;;20.93;4.63;;;27.60;99.90;;;;;;5130781;27;20434;-86
2022/01/06 00:33:20;;;;;;;23.97;5.07;;;27.90;99.90;;;;;;5130940;27;20849;-83
2022/01/06 00:35:47;;;;;;;18.00;4.65;;;27.70;99.90;;;;;;5130900;27;20437;-89
2022/01/06 00:38:14;;;;;;;23.20;4.68;;;27.80;99.90;;;;;;5134025;27;20443;-80
2022/01/06 00:40:41;;;;;;;23.10;4.80;;;27.80;99.90;;;;;;5130518;27;20420;-83
2022/01/06 00:43:11;;;;;;;20.58;4.68;;;27.40;99.90;;;;;;5132718;27;20376;-90
2022/01/06 00:45:38;;;;;;;20.75;4.57;;;27.10;99.90;;;;;;5130659;27;20840;-86
2022/01/06 00:48:10;;;;;;;19.05;4.43;;;26.80;99.90;;;;;;5130282;27;20369;-86
2022/01/06 00:50:39;;;;;;;16.95;4.22;;;26.70;99.90;;;;;;5130385;27;20468;-81
2022/01/06 00:53:06;;;;;;;17.45;3.97;;;26.60;99.90;;;;;;5130301;27;20763;-85
2022/01/06 00:55:35;;;;;;;17.50;4.05;;;26.80;99.90;;;;;;5111739;27;20718;-87
2022/01/06 00:58:03;;;;;;;17.42;4.22;;;26.80;99.90;;;;;;5130157;27;20368;-85
2022/01/06 01:00:38;;;;;;;22.85;4.75;;;26.90;99.90;;;;;;5130225;27;20395;-82
2022/01/06 01:03:08;;;;;;;18.60;4.28;;;27.20;99.90;;;;;;5130279;27;20399;-85
2022/01/06 01:05:35;;;;;;;17.13;4.15;;;27.30;99.90;;;;;;5111640;27;20373;-84
2022/01/06 01:08:02;;;;;;;21.02;4.75;;;27.30;99.90;;;;;;5130157;27;20453;-84
2022/01/06 01:10:30;;;;;;;24.50;4.72;;;26.90;99.90;;;;;;5129715;27;20468;-88
2022/01/06 01:12:57;;;;;;;18.83;4.33;;;26.80;99.90;;;;;;5130077;27;20418;-88
2022/01/06 01:15:24;;;;;;;18.63;4.55;;;26.70;99.90;;;;;;5129819;27;20378;-85
2022/01/06 01:18:04;;;;;;;18.03;4.23;;;26.70;99.90;;;;;;5129757;27;20397;-82
2022/01/06 01:20:31;;;;;;;20.05;4.35;;;26.80;99.90;;;;;;5129736;27;20377;-94
2022/01/06 01:22:58;;;;;;;16.55;4.03;;;27.10;99.90;;;;;;5130092;27;20358;-83
2022/01/06 01:25:25;;;;;;;19.33;4.35;;;27.10;99.90;;;;;;5129595;27;20457;-84
2022/01/06 01:27:55;;;;;;;21.63;4.65;;;27.30;99.90;;;;;;5129507;27;20373;-84
2022/01/06 01:30:29;;;;;;;19.38;3.83;;;27.50;99.90;;;;;;5129438;27;20794;-83
2022/01/06 01:32:58;;;;;;;16.23;3.92;;;27.60;99.90;;;;;;5129771;27;20369;-84
2022/01/06 01:35:31;;;;;;;19.67;4.05;;;27.30;99.90;;;;;;5111279;27;20877;-86
2022/01/06 01:37:59;;;;;;;14.43;3.58;;;27.20;99.90;;;;;;5129352;27;20362;-84
2022/01/06 01:40:27;;;;;;;15.65;3.72;;;27.50;99.90;;;;;;5129184;27;20453;-83
2022/01/06 01:42:54;;;;;;;16.98;3.90;;;27.60;99.90;;;;;;5129379;27;20365;-80
2022/01/06 01:45:27;;;;;;;18.75;4.30;;;27.70;99.90;;;;;;5129301;27;20365;-83
2022/01/06 01:47:54;;;;;;;17.90;4.03;;;27.90;99.90;;;;;;5129571;27;20364;-81
2022/01/06 01:50:21;;;;;;;15.05;4.10;;;28.30;99.90;;;;;;5129109;27;20389;-83
2022/01/06 01:52:52;;;;;;;17.73;4.22;;;28.70;99.90;;;;;;5129440;27;20369;-86
2022/01/06 01:55:27;;;;;;;19.27;4.10;;;29.10;99.90;;;;;;5129026;27;20373;-86
2022/01/06 01:57:55;;;;;;;17.85;4.47;;;29.20;99.90;;;;;;5129154;27;20369;-86
2022/01/06 02:00:27;;;;;;;19.15;4.53;;;29.10;99.90;;;;;;5128970;27;20739;-86
2022/01/06 02:02:55;;;;;;;17.10;4.18;;;28.90;99.90;;;;;;5128985;27;20440;-85
2022/01/06 02:05:26;;;;;;;19.50;4.43;;;28.90;99.90;;;;;;5129272;27;20413;-87
2022/01/06 02:07:55;;;;;;;19.17;4.70;;;28.90;99.90;;;;;;5129112;27;20505;-84
2022/01/06 02:10:22;;;;;;;14.93;4.10;;;29.10;99.90;;;;;;5128657;27;20396;-87
2022/01/06 02:12:52;;;;;;;18.85;4.53;;;28.90;99.90;;;;;;5128657;27;20373;-82
2022/01/06 02:15:19;;;;;;;18.90;4.18;;;28.60;99.90;;;;;;5129071;28;20391;-85
2022/01/06 02:17:48;;;;;;;14.18;3.75;;;28.60;99.90;;;;;;5128840;28;20365;-87
2022/01/06 02:20:17;;;;;;;16.38;4.05;;;28.40;99.90;;;;;;5109592;28;20377;-87
2022/01/06 02:22:45;;;;;;;15.98;3.70;;;28.40;99.90;;;;;;5128888;28;20709;-86
2022/01/06 02:25:16;;;;;;;17.33;3.55;;;28.40;99.90;;;;;;5128737;28;20368;-84
2022/01/06 02:27:51;;;;;;;15.57;3.90;;;28.30;99.90;;;;;;5129204;28;20452;-86
2022/01/06 02:30:20;;;;;;;15.38;3.67;;;28.70;99.90;;;;;;5128720;28;20404;-87
2022/01/06 02:32:47;;;;;;;16.85;3.90;;;28.90;99.90;;;;;;5128863;28;20413;-86
2022/01/06 02:35:21;;;;;;;16.70;3.80;;;28.60;99.80;;;;;;5129424;28;20452;-87
2022/01/06 02:37:48;;;;;;;15.90;3.95;;;28.30;99.90;;;;;;5128810;28;20353;-86
2022/01/06 02:40:18;;;;;;;15.75;4.10;;;28.10;99.90;;;;;;5128674;28;20391;-87
2022/01/06 02:42:48;;;;;;;19.10;4.13;;;28.20;99.90;;;;;;5128687;28;20901;-86
2022/01/06 02:45:16;;;;;;;19.90;4.22;;;28.20;99.90;;;;;;5128890;28;20872;-86
2022/01/06 02:47:45;;;;;;;15.68;3.78;;;28.20;99.90;;;;;;5128752;28;20369;-84
2022/01/06 02:50:13;;;;;;;17.98;3.90;;;28.20;99.90;;;;;;5128604;28;20764;-86
2022/01/06 02:52:40;;;;;;;18.42;4.13;;;28.40;99.90;;;;;;5129437;28;20388;-85
2022/01/06 02:55:09;;;;;;;16.38;3.70;;;28.90;99.90;;;;;;5128586;28;20373;-83
2022/01/06 02:57:39;;;;;;;17.63;3.70;;;29.60;98.90;;;;;;5128979;28;20457;-90
2022/01/06 03:00:09;;;;;;;15.73;3.75;;;29.60;97.30;;;;;;5129465;28;20885;-91
2022/01/06 03:02:36;;;;;;;15.85;3.90;;;29.50;97.30;;;;;;5128684;28;20412;-81
2022/01/06 03:05:06;;;;;;;13.85;3.70;;;29.60;97.30;;;;;;5129122;28;20373;-94
2022/01/06 03:07:34;;;;;;;19.30;3.53;;;29.80;97.50;;;;;;5129041;28;20840;-83
2022/01/06 03:10:03;;;;;;;14.67;3.73;;;30.00;95.30;;;;;;5128433;28;20479;-84
2022/01/06 03:12:39;;;;;;;16.53;3.77;;;29.80;96.00;;;;;;5128688;28;20373;-83
2022/01/06 03:15:07;;;;;;;16.98;4.00;;;29.70;96.20;;;;;;5128549;28;20858;-85
2022/01/06 03:17:36;;;;;;;18.10;3.80;;;29.70;97.30;;;;;;5128685;28;20393;-84
2022/01/06 03:20:05;;;;;;;14.85;3.60;;;30.50;95.60;;;;;;5128546;28;20433;-84
2022/01/06 03:22:32;;;;;;;14.27;3.45;;;30.90;94.50;;;;;;5128638;28;20373;-85
2022/01/06 03:24:59;;;;;;;12.90;3.40;;;30.90;93.80;;;;;;5128580;28;20453;-82
2022/01/06 03:27:26;;;;;;;14.93;3.70;;;30.90;92.80;;;;;;5128500;28;20523;-82
2022/01/06 03:29:53;;;;;;;12.68;3.30;;;31.10;92.10;;;;;;5128381;27;20393;-82
2022/01/06 03:32:20;;;;;;;12.70;3.33;;;31.30;91.60;;;;;;5132140;27;20392;-82
2022/01/06 03:34:48;;;;;;;15.90;3.50;;;31.40;91.60;;;;;;5131997;27;20369;-84
2022/01/06 03:37:15;;;;;;;15.15;3.53;;;31.50;91.60;;;;;;5132085;27;20369;-84
2022/01/06 03:39:44;;;;;;;15.23;3.47;;;31.90;89.90;;;;;;5113972;27;20419;-87
2022/01/06 03:42:12;;;;;;;17.90;3.90;;;32.00;88.90;;;;;;5113345;27;20385;-83
2022/01/06 03:44:39;;;;;;;16.58;3.80;;;31.80;86.90;;;;;;5131818;27;20369;-82
2022/01/06 03:47:07;;;;;;;14.45;3.53;;;31.80;87.70;;;;;;5131897;27;20440;-86
2022/01/06 03:49:34;;;;;;;15.23;4.00;;;31.40;88.80;;;;;;5131612;27;20384;-86
2022/01/06 03:52:01;;;;;;;13.10;3.50;;;31.10;90.80;;;;;;5131782;27;20735;-86
2022/01/06 03:54:28;;;;;;;17.27;4.10;;;30.80;90.70;;;;;;5131741;27;20357;-80
2022/01/06 03:56:56;;;;;;;14.35;3.92;;;30.20;91.70;;;;;;5131631;27;20377;-87
2022/01/06 03:59:23;;;;;;;16.92;3.33;;;30.00;92.90;;;;;;5131766;27;20448;-87
2022/01/06 04:01:50;;;;;;;15.73;3.70;;;29.80;93.30;;;;;;5131627;27;20380;-85
2022/01/06 04:04:18;;;;;;;13.02;3.38;;;29.60;93.70;;;;;;5131580;27;20677;-85
2022/01/06 04:06:45;;;;;;;16.45;3.40;;;29.50;93.80;;;;;;5131505;27;20426;-85
2022/01/06 04:09:12;;;;;;;15.23;3.50;;;29.30;94.90;;;;;;5131438;27;20433;-84
2022/01/06 04:11:39;;;;;;;16.25;3.85;;;29.30;94.80;;;;;;5131404;27;20376;-85
2022/01/06 04:14:06;;;;;;;14.10;3.50;;;29.30;95.40;;;;;;5131424;27;20369;-86
2022/01/06 04:16:36;;;;;;;13.53;3.70;;;29.50;94.60;;;;;;5131370;27;20377;-86
2022/01/06 04:19:03;;;;;;;15.68;3.45;;;29.60;94.60;;;;;;5131238;27;20369;-85
2022/01/06 04:21:31;;;;;;;16.88;3.83;;;29.80;94.10;;;;;;5131168;27;20851;-86
2022/01/06 04:23:58;;;;;;;15.25;3.90;;;29.80;94.40;;;;;;5131389;27;20871;-87
2022/01/06 04:26:25;;;;;;;19.00;4.30;;;29.60;94.00;;;;;;5131191;27;20373;-86
2022/01/06 04:28:52;;;;;;;18.73;4.60;;;29.20;94.80;;;;;;5130904;27;20373;-82
2022/01/06 04:31:19;;;;;;;21.13;4.30;;;28.90;95.40;;;;;;5131151;27;20399;-85
2022/01/06 04:33:46;;;;;;;14.38;3.90;;;28.80;96.00;;;;;;5112555;27;20736;-84
2022/01/06 04:36:14;;;;;;;16.10;4.25;;;28.80;96.20;;;;;;5131060;27;20388;-84
2022/01/06 04:38:40;;;;;;;15.70;3.83;;;28.70;96.30;;;;;;5130755;27;20361;-85
2022/01/06 04:41:07;;;;;;;18.17;4.20;;;28.40;96.80;;;;;;5130717;27;20403;-85
2022/01/06 04:43:34;;;;;;;18.02;4.28;;;28.20;97.10;;;;;;5129934;27;20361;-86
2022/01/06 04:46:04;;;;;;;17.63;4.13;;;28.10;98.30;;;;;;5130769;27;20377;-87
2022/01/06 04:48:32;;;;;;;15.93;3.83;;;27.80;98.70;;;;;;5130644;27;20373;-85
2022/01/06 04:50:59;;;;;;;21.08;4.32;;;27.70;98.40;;;;;;5130337;27;20897;-86
2022/01/06 04:53:26;;;;;;;21.17;4.30;;;27.80;98.40;;;;;;5130846;27;20360;-87
2022/01/06 04:55:54;;;;;;;16.63;3.90;;;28.00;98.40;;;;;;5130459;27;20736;-86
2022/01/06 04:58:21;;;;;;;16.50;3.97;;;28.00;98.30;;;;;;5130513;27;20368;-85
2022/01/06 05:00:48;;;;;;;15.45;3.72;;;28.10;98.40;;;;;;5130329;27;20371;-83
2022/01/06 05:03:16;;;;;;;18.10;4.00;;;28.00;97.90;;;;;;5130335;27;20460;-82
2022/01/06 05:05:43;;;;;;;15.73;3.67;;;27.80;97.70;;;;;;5130279;27;20454;-84
2022/01/06 05:08:10;;;;;;;16.50;3.87;;;27.80;98.50;;;;;;5111867;27;20752;-86
2022/01/06 05:10:37;;;;;;;17.70;3.83;;;27.80;98.30;;;;;;5130139;27;20487;-85
2022/01/06 05:13:04;;;;;;;17.25;3.83;;;27.80;98.20;;;;;;5130594;27;20464;-87
2022/01/06 05:15:31;;;;;;;17.42;3.95;;;27.70;98.60;;;;;;5130467;27;20517;-86
2022/01/06 05:17:58;;;;;;;18.23;3.97;;;27.50;99.20;;;;;;5112066;27;20373;-86
2022/01/06 05:20:26;;;;;;;19.03;3.87;;;27.50;99.40;;;;;;5132461;27;20384;-90
2022/01/06 05:22:57;;;;;;;21.00;3.92;;;27.30;99.70;;;;;;5130389;27;20365;-86
2022/01/06 05:25:27;;;;;;;15.85;3.70;;;27.20;99.90;;;;;;5111852;27;20456;-81
2022/01/06 05:27:55;;;;;;;17.63;3.73;;;27.00;99.90;;;;;;5130445;27;20388;-83
2022/01/06 05:30:23;;;;;;;16.45;3.72;;;27.00;99.90;;;;;;5129662;27;20392;-88
2022/01/06 05:32:50;;;;;;;18.33;4.30;;;27.20;99.90;;;;;;5130167;27;20819;-91
2022/01/06 05:35:18;;;;;;;17.48;4.22;;;27.40;99.90;;;;;;5131122;27;20381;-93
2022/01/06 05:37:45;;;;;;;18.92;4.38;;;27.40;99.90;;;;;;5129910;27;20380;-86
2022/01/06 05:40:13;;;;;;;17.77;3.85;;;27.30;99.90;;;;;;5130355;27;20383;-88
2022/01/06 05:42:41;;;;;;;16.30;4.00;;;27.00;99.90;;;;;;5131626;27;20801;-89
2022/01/06 05:45:09;;;;;;;18.95;3.72;;;26.90;99.90;;;;;;5131816;27;20384;-89
2022/01/06 05:47:38;;;;;;;15.82;3.50;;;26.60;99.90;;;;;;5135240;27;20365;-94
2022/01/06 05:50:06;;;;;;;19.00;4.03;;;26.50;99.90;;;;;;5132540;27;20397;-91
2022/01/06 05:52:37;;;;;;;17.05;4.30;;;26.40;99.90;;;;;;5111358;27;20433;-87
2022/01/06 05:55:05;;;;;;;17.27;3.97;;;26.60;99.90;;;;;;5130125;27;20418;-85
2022/01/06 05:57:32;;;;;;;17.75;4.38;;;26.60;99.90;;;;;;5129974;27;20373;-85
2022/01/06 05:59:59;;;;;;;17.90;4.45;;;26.70;99.90;;;;;;5129213;27;20369;-86
2022/01/06 06:02:26;;;;;;;14.98;3.88;;;26.70;99.90;;;;;;5129623;27;20452;-86
2022/01/06 06:04:54;;;;;;;17.23;3.88;;;26.70;99.90;;;;;;5129401;27;20405;-88
2022/01/06 06:07:21;;;;;;;17.92;4.10;;;26.90;99.90;;;;;;5129285;27;20380;-91
2022/01/06 06:09:48;;;;;;;17.10;4.05;;;27.00;99.90;;;;;;5130096;27;20446;-88
2022/01/06 06:12:15;;;;;;;16.77;3.78;;;27.10;99.90;;;;;;5111145;28;20743;-89
2022/01/06 06:14:42;;;;;;;18.67;3.97;;;27.30;99.90;;;;;;5130194;27;20372;-80
2022/01/06 06:17:10;;;;;;;17.92;4.13;;;27.50;99.90;;;;;;5129594;27;20361;-87
2022/01/06 06:19:36;;;;;;;20.42;4.05;;;27.80;99.90;;;;;;5130889;28;20458;-91
2022/01/06 06:22:04;;;;;;;26.48;4.88;;;27.90;99.90;;;;;;5129698;28;20736;-91
2022/01/06 06:24:31;;;;;;;16.20;4.30;;;27.90;99.90;;;;;;5129436;28;20844;-91
2022/01/06 06:26:58;;;;;;;17.08;4.15;;;27.50;99.40;;;;;;5129357;28;20373;-91
2022/01/06 06:29:25;;;;;;;19.70;4.20;;;27.30;99.40;;;;;;5129619;28;20385;-88
2022/01/06 06:31:52;;;;;;;17.08;3.90;;;27.10;99.70;;;;;;5129443;28;20373;-86
2022/01/06 06:34:19;;;;;;;21.23;4.55;;;27.10;99.90;;;;;;5129029;28;20369;-81
2022/01/06 06:36:46;;;;;;;24.58;4.22;;;27.00;99.90;;;;;;5129825;28;20720;-83
2022/01/06 06:39:13;;;;;;;22.67;4.63;;;26.80;99.90;;;;;;5128980;28;20982;-89
2022/01/06 06:41:41;;;;;;;19.33;4.10;;;26.70;99.90;;;;;;5129229;28;20411;-77
2022/01/06 06:44:08;;;;;;;23.35;4.57;;;26.60;99.90;;;;;;5129102;28;20373;-86
2022/01/06 06:46:35;;;;;;;19.38;4.47;;;26.60;99.90;;;;;;5129007;28;20734;-84
2022/01/06 06:49:02;;;;;;;18.75;4.55;;;26.50;99.90;;;;;;5129281;28;20844;-88
2022/01/06 06:51:29;;;;;;;15.20;3.83;;;26.40;99.90;;;;;;5133807;28;20415;-84
2022/01/06 06:53:56;;;;;;;20.23;4.30;;;26.30;99.90;;;;;;5132586;28;20372;-89
2022/01/06 06:56:23;;;;;;;22.77;4.38;;;26.20;99.90;;;;;;5130152;28;20390;-87
2022/01/06 06:58:50;;;;;;;19.88;4.47;;;26.10;99.90;;;;;;5130278;28;20843;-87
2022/01/06 07:01:17;;;;;;;19.70;4.38;;;26.20;99.90;;;;;;5130171;28;20385;-87
2022/01/06 07:03:44;;;;;;;17.48;4.32;;;26.30;99.90;;;;;;5129945;28;20365;-89
2022/01/06 07:06:11;;;;;;;20.07;4.50;;;26.30;99.90;;;;;;5133055;27;20837;-89
2022/01/06 07:08:38;;;;;;;20.13;4.40;;;26.20;99.90;;;;;;5134206;27;20724;-89
2022/01/06 07:11:05;;;;;;;20.27;4.40;;;26.10;99.90;;;;;;5134249;27;20396;-87
2022/01/06 07:13:33;;;;;;;22.63;4.57;;;25.90;99.90;;;;;;5133206;27;20361;-93
2022/01/06 07:16:00;;;;;;;23.42;5.47;;;25.80;99.90;;;;;;5133040;27;20369;-87
2022/01/06 07:18:27;;;;;;;20.02;4.72;;;25.70;99.90;;;;;;5132592;27;20368;-87
2022/01/06 07:20:54;;;;;;;19.38;4.07;;;25.70;99.90;;;;;;5132613;27;20376;-79
2022/01/06 07:23:21;;;;;;;22.23;4.68;;;25.70;99.90;;;;;;5132584;27;20368;-85
2022/01/06 07:25:48;;;;;;;22.33;4.30;;;25.70;99.90;;;;;;5133083;27;20922;-86
2022/01/06 07:28:14;;;;;;;23.65;4.90;;;25.70;99.90;;;;;;5132821;27;20472;-91
2022/01/06 07:30:41;;;;;;;21.58;4.60;;;25.60;99.90;;;;;;5132108;27;20873;-86
2022/01/06 07:33:08;;;;;;;19.13;4.03;;;25.60;99.90;;;;;;5132087;27;20373;-87
2022/01/06 07:35:35;;;;;;;23.88;4.55;;;25.60;99.90;;;;;;5132333;27;20405;-89
2022/01/06 07:38:02;;;;;;;23.08;5.10;;;25.60;99.90;;;;;;5132280;27;20369;-86
2022/01/06 07:40:30;;;;;;;20.35;4.45;;;25.60;99.90;;;;;;5132490;27;20393;-88
2022/01/06 07:42:57;;;;;;;23.05;4.60;;;25.60;99.90;;;;;;5132541;27;20446;-92
2022/01/06 07:45:24;;;;;;;20.33;4.50;;;25.60;99.90;;;;;;5135065;27;20715;-91
2022/01/06 07:48:01;;;;;;;22.10;4.20;;;25.60;99.90;;;;;;5134866;27;20367;-87
2022/01/06 07:50:30;;;;;;;23.35;4.90;;;25.60;99.90;;;;;;5133017;27;20399;-81
2022/01/06 07:52:58;;;;;;;22.35;4.82;;;25.60;99.90;;;;;;5136277;27;20921;-78
2022/01/06 07:55:26;;;;;;;20.25;4.53;;;25.60;99.90;;;;;;5136186;27;20389;-92
2022/01/06 07:57:54;;;;;;;23.05;4.50;;;25.60;99.90;;;;;;5137071;27;20910;-91
2022/01/06 08:00:22;;;;;;;21.15;4.32;;;25.50;99.90;;;;;;5135549;27;20479;-93
2022/01/06 08:02:49;;;;;;;19.00;4.57;;;25.40;99.90;;;;;;5134630;27;20369;-87
2022/01/06 08:05:16;;;;;;;20.45;4.60;;;25.30;99.90;;;;;;5135199;27;20408;-85
2022/01/06 08:07:43;;;;;;;23.95;4.60;;;25.30;99.90;;;;;;5136037;27;20872;-88
2022/01/06 08:10:11;;;;;;;19.10;4.10;;;25.30;99.90;;;;;;5134027;27;20454;-90
2022/01/06 08:12:39;;;;;;;22.08;4.20;;;25.30;99.90;;;;;;5115438;27;20388;-89
2022/01/06 08:15:07;;;;;;;20.92;4.50;;;25.30;99.90;;;;;;5132096;27;20381;-90
2022/01/06 08:17:36;;;;;;;19.73;4.10;;;25.20;99.90;;;;;;5130532;27;20380;-93
2022/01/06 08:20:10;;;;;;;20.92;4.15;;;25.20;99.90;;;;;;5132504;27;20460;-91
2022/01/06 08:22:38;;;;;;;17.60;4.30;;;25.10;99.90;;;;;;5132258;27;20421;-86
2022/01/06 08:25:07;;;;;;;20.20;4.35;;;25.10;99.90;;;;;;5132060;27;20380;-90
2022/01/06 08:27:34;;;;;;;18.60;4.23;;;25.00;99.90;;;;;;5131428;27;20456;-89
2022/01/06 08:30:01;;;;;;;20.40;4.50;;;25.00;99.90;;;;;;5131836;27;20409;-86
2022/01/06 08:32:28;;;;;;;23.77;4.35;;;25.00;99.90;;;;;;5131804;27;20361;-92
2022/01/06 08:34:55;;;;;;;17.42;4.22;;;25.00;99.90;;;;;;5132314;27;20384;-91
2022/01/06 08:37:22;;;;;;;24.10;4.68;;;24.90;99.90;;;;;;5132569;27;20369;-88
2022/01/06 08:39:49;;;;;;;21.88;4.63;;;24.80;99.90;;;;;;5131009;27;20933;-89
2022/01/06 08:42:16;;;;;;;21.17;4.65;;;24.80;99.90;;;;;;5131652;27;20384;-91
2022/01/06 08:44:43;;;;;;;22.90;4.73;;;24.80;99.90;;;;;;5131516;27;20383;-89
2022/01/06 08:47:11;;;;;;;24.63;4.90;;;24.80;99.90;;;;;;5112686;27;20723;-90
2022/01/06 08:49:41;;;;;;;19.23;4.15;;;24.80;99.90;;;;;;5130738;27;20391;-91
2022/01/06 08:52:11;;;;;;;25.67;4.68;;;24.70;99.90;;;;;;5131154;27;20765;-92
2022/01/06 08:54:38;;;;;;;20.40;4.68;;;24.70;99.90;;;;;;5131729;27;20841;-91
2022/01/06 08:57:05;;;;;;;20.42;4.32;;;24.60;99.90;;;;;;5131574;27;20404;-91
2022/01/06 08:59:32;;;;;;;22.33;4.55;;;24.60;99.90;;;;;;5131096;27;20387;-87
2022/01/06 09:01:59;;;;;;;23.27;4.60;;;24.60;99.90;;;;;;5131183;27;20445;-90
2022/01/06 09:04:26;;;;;;;21.05;4.50;;;24.50;99.90;;;;;;5130907;27;20377;-91
2022/01/06 09:06:53;;;;;;;22.63;4.65;;;24.50;99.90;;;;;;5131069;27;20411;-88
2022/01/06 09:09:21;;;;;;;26.27;4.78;;;24.50;99.90;;;;;;5132938;27;20396;-89
2022/01/06 09:11:48;;;;;;;22.60;4.40;;;24.50;99.90;;;;;;5130681;27;20879;-91
2022/01/06 09:14:15;;;;;;;22.58;4.38;;;24.50;99.90;;;;;;5130732;27;20486;-92
2022/01/06 09:16:42;;;;;;;27.63;4.97;;;24.40;99.90;;;;;;5131321;27;20752;-93
2022/01/06 09:19:09;;;;;;;25.80;4.80;;;24.50;99.90;;;;;;5130256;27;20373;-90
2022/01/06 09:21:36;;;;;;;21.58;4.45;;;24.50;99.90;;;;;;5112241;27;20353;-91
2022/01/06 09:24:07;;;;;;;20.00;4.60;;;24.40;99.90;;;;;;5130214;27;21008;-91
2022/01/06 09:26:38;;;;;;;26.15;5.10;;;24.30;99.90;;;;;;5130400;27;20446;-88
2022/01/06 09:29:07;;;;;;;24.50;4.88;;;24.30;99.90;;;;;;5129634;27;20369;-87
2022/01/06 09:31:36;;;;;;;25.25;4.75;;;24.30;99.90;;;;;;5129847;27;20381;-87
2022/01/06 09:34:04;;;;;;;22.43;4.63;;;24.30;99.90;;;;;;5129988;27;20371;-90
2022/01/06 09:36:32;;;;;;;26.27;4.87;;;24.30;99.90;;;;;;5130139;27;20405;-90
2022/01/06 09:39:00;;;;;;;21.45;4.43;;;24.30;99.90;;;;;;5111478;27;20377;-89
2022/01/06 09:41:27;;;;;;;23.90;4.83;;;24.30;99.90;;;;;;5130149;27;20384;-89
2022/01/06 09:43:55;;;;;;;23.95;4.88;;;24.20;99.90;;;;;;5129781;27;20384;-92
2022/01/06 09:46:22;;;;;;;26.25;4.80;;;24.30;99.90;;;;;;5129775;27;20368;-90
2022/01/06 09:48:50;;;;;;;25.13;4.80;;;24.20;99.90;;;;;;5129656;27;20377;-89
2022/01/06 09:51:18;;;;;;;23.50;4.50;;;24.20;99.90;;;;;;5129717;27;20396;-90
2022/01/06 09:53:45;;;;;;;22.50;4.55;;;24.20;99.90;;;;;;5129590;27;20810;-91
2022/01/06 09:56:13;;;;;;;21.90;4.60;;;24.20;99.90;;;;;;5129805;27;20381;-89
2022/01/06 09:58:40;;;;;;;22.17;4.50;;;24.20;99.90;;;;;;5111387;27;20373;-90
2022/01/06 10:01:07;;;;;;;23.52;4.88;;;24.20;99.90;;;;;;5111116;27;20380;-88
2022/01/06 10:03:48;;;;;;;24.23;4.80;;;24.20;99.90;;;;;;5129455;27;20365;-86
2022/01/06 10:06:25;;;;;;;27.90;5.07;;;24.20;99.90;;;;;;5129337;27;20392;-89
2022/01/06 10:09:03;;;;;;;21.65;4.93;;;24.20;99.90;;;;;;5111113;27;20736;-87
2022/01/06 10:11:33;;;;;;;23.48;4.63;;;24.10;99.90;;;;;;5129676;27;20384;-85
2022/01/06 10:14:06;;;;;;;22.30;4.57;;;24.10;99.90;;;;;;5129612;27;20367;-87
2022/01/06 10:16:33;;;;;;;24.60;4.70;;;24.10;99.90;;;;;;5129230;27;20373;-87
2022/01/06 10:19:11;;;;;;;22.27;4.63;;;24.10;99.90;;;;;;5129250;28;20361;-87
2022/01/06 10:21:47;;;;;;;25.47;4.87;;;24.10;99.90;;;;;;5129251;28;20901;-88
2022/01/06 10:24:20;;;;;;;24.35;4.82;;;24.10;99.90;;;;;;5129234;28;20448;-87
2022/01/06 10:27:07;;;;;;;20.73;4.63;;;24.10;99.90;;;;;;5129132;28;20376;-86
2022/01/06 10:29:37;;;;;;;24.02;4.60;;;24.10;99.90;;;;;;5129177;28;20878;-88
2022/01/06 10:32:09;;;;;;;24.77;4.70;;;24.10;99.90;;;;;;5129117;28;20384;-87
2022/01/06 10:34:42;;;;;;;20.95;4.35;;;24.10;99.90;;;;;;5129107;28;20364;-87
2022/01/06 10:37:20;;;;;;;24.00;4.47;;;24.10;99.90;;;;;;5129141;28;20406;-81
2022/01/06 10:39:49;;;;;;;22.25;4.50;;;24.10;99.90;;;;;;5129092;27;20400;-88
2022/01/06 10:42:17;;;;;;;20.83;4.20;;;24.10;99.90;;;;;;5133338;27;20384;-87
2022/01/06 10:44:54;;;;;;;22.20;4.60;;;24.00;99.90;;;;;;5133849;27;20380;-88
2022/01/06 10:47:32;;;;;;;22.98;4.68;;;24.00;99.90;;;;;;5133201;27;20436;-88
2022/01/06 10:50:36;;;;;;;21.00;4.57;;;24.00;99.90;;;;;;5133114;27;20888;-87
2022/01/06 10:53:12;;;;;;;25.50;5.03;;;23.90;99.90;;;;;;5133589;27;20371;-87
2022/01/06 10:55:42;;;;;;;26.88;4.57;;;23.90;99.90;;;;;;5133034;27;20369;-87
2022/01/06 10:58:11;;;;;;;26.83;5.10;;;23.90;99.90;;;;;;5132984;27;20359;-87
2022/01/06 11:00:41;;;;;;;23.38;4.45;;;23.90;99.90;;;;;;5132955;27;20383;-88
2022/01/06 11:03:13;;;;;;;22.38;4.30;;;23.80;99.90;;;;;;5132900;27;20365;-87
2022/01/06 11:05:46;;;;;;;22.70;4.75;;;23.80;99.90;;;;;;5132815;27;20895;-88
2022/01/06 11:08:17;;;;;;;23.93;4.53;;;23.80;99.90;;;;;;5132646;27;20361;-87
2022/01/06 11:10:50;;;;;;;20.95;4.38;;;23.80;99.90;;;;;;5133062;27;20392;-87
2022/01/06 11:13:17;;;;;;;24.05;4.50;;;23.70;99.90;;;;;;5133529;27;20361;-88
2022/01/06 11:15:45;;;;;;;24.67;4.30;;;23.70;99.90;;;;;;5133601;27;20361;-88
2022/01/06 11:18:19;;;;;;;22.58;4.22;;;23.70;99.90;;;;;;5132927;27;20771;-87
2022/01/06 11:20:47;;;;;;;25.70;4.83;;;23.60;99.90;;;;;;5132562;27;20459;-87
2022/01/06 11:23:25;;;;;;;22.23;4.25;;;23.60;99.90;;;;;;5132357;27;20788;-87
2022/01/06 11:26:13;;;;;;;25.27;4.80;;;23.70;99.90;;;;;;5132468;27;20422;-87
2022/01/06 11:28:42;;;;;;;21.20;4.35;;;23.60;99.90;;;;;;5132627;27;20365;-87
2022/01/06 11:31:16;;;;;;;24.80;4.47;;;23.60;99.90;;;;;;5132240;27;20391;-86
2022/01/06 11:33:45;;;;;;;20.10;4.60;;;23.60;99.90;;;;;;5132141;27;20353;-82
2022/01/06 11:36:35;;;;;;;24.33;4.53;;;23.60;99.90;;;;;;5113699;27;20888;-86
2022/01/06 11:39:06;;;;;;;25.05;4.57;;;23.60;99.90;;;;;;5132216;27;20365;-86
2022/01/06 11:41:36;;;;;;;25.95;4.65;;;23.60;99.90;;;;;;5132145;27;20465;-87
2022/01/06 11:44:15;;;;;;;22.65;4.57;;;23.60;99.90;;;;;;5131955;27;20366;-86
2022/01/06 11:46:47;;;;;;;24.63;4.57;;;23.70;99.90;;;;;;5131919;27;20388;-87
2022/01/06 11:49:15;;;;;;;24.88;4.60;;;23.70;99.90;;;;;;5131821;27;20380;-87
2022/01/06 11:51:43;;;;;;;21.67;4.78;;;23.70;99.90;;;;;;5131461;27;20369;-86
2022/01/06 11:54:18;;;;;;;28.97;5.13;;;23.70;99.90;;;;;;5132020;27;20369;-86
2022/01/06 11:56:47;;;;;;;23.08;4.88;;;23.70;99.90;;;;;;5131895;27;20728;-88
2022/01/06 11:59:15;;;;;;;27.83;5.15;;;23.70;99.90;;;;;;5131996;27;20418;-88
2022/01/06 12:01:51;;;;;;;20.67;4.38;;;23.70;99.90;;;;;;5131700;27;20694;-87
2022/01/06 12:04:23;;;;;;;22.77;4.70;;;23.70;99.90;;;;;;5131683;27;20392;-87
2022/01/06 12:07:01;;;;;;;22.30;4.50;;;23.70;99.90;;;;;;5131519;27;20425;-86
2022/01/06 12:09:28;;;;;;;21.37;4.97;;;23.80;99.90;;;;;;5131641;27;20384;-88
2022/01/06 12:12:03;;;;;;;26.52;5.28;;;23.80;99.90;;;;;;5131490;27;20830;-88
2022/01/06 12:14:31;;;;;;;25.60;5.18;;;23.70;99.90;;;;;;5131739;27;20353;-88
2022/01/06 12:17:08;;;;;;;27.15;4.55;;;23.70;99.90;;;;;;5131454;27;20455;-87
2022/01/06 12:19:36;;;;;;;23.47;4.93;;;23.70;99.90;;;;;;5131585;27;20456;-90
2022/01/06 12:22:09;;;;;;;23.58;4.82;;;23.70;99.90;;;;;;5131414;27;20372;-88
2022/01/06 12:24:36;;;;;;;28.30;5.13;;;23.70;99.90;;;;;;5131371;27;20357;-87
2022/01/06 12:27:04;;;;;;;28.07;5.40;;;23.70;99.90;;;;;;5131335;27;20376;-88
2022/01/06 12:29:38;;;;;;;24.17;4.97;;;23.70;99.90;;;;;;5131032;27;20454;-87
2022/01/06 12:32:10;;;;;;;23.00;4.63;;;23.70;99.90;;;;;;5131287;27;20357;-88
2022/01/06 12:34:39;;;;;;;28.55;5.10;;;23.70;99.90;;;;;;5112661;27;20400;-87
2022/01/06 12:37:06;;;;;;;26.50;4.85;;;23.70;99.90;;;;;;5131247;27;20368;-86
2022/01/06 12:39:33;;;;;;;28.35;5.15;;;23.70;99.90;;;;;;5131086;27;20369;-87
2022/01/06 12:42:05;;;;;;;24.92;4.55;;;23.70;99.90;;;;;;5130910;27;20389;-87
2022/01/06 12:44:32;;;;;;;26.20;4.88;;;23.70;99.90;;;;;;5130944;27;20396;-87
2022/01/06 12:46:59;;;;;;;27.80;5.07;;;23.70;99.90;;;;;;5130931;27;20373;-88
2022/01/06 12:49:28;;;;;;;27.05;5.35;;;23.60;99.90;;;;;;5130697;27;20856;-87